createdAt,value
2018-11-20T00:02:19.569Z,97278.00
2018-11-20T00:06:28.453Z,97274.00
2018-11-20T00:11:10.201Z,97260.00
2018-11-20T00:15:35.961Z,97257.00
2018-11-20T00:20:42.774Z,97252.00
2018-11-20T00:25:50.014Z,97242.00
2018-11-20T00:29:56.855Z,97239.00
2018-11-20T00:34:07.682Z,97242.00
2018-11-20T00:38:15.779Z,97241.00
2018-11-20T00:42:23.666Z,97230.00
2018-11-20T00:48:35.204Z,97235.00
2018-11-20T00:52:43.244Z,97238.00
2018-11-20T00:57:21.399Z,97236.00
2018-11-20T01:01:49.337Z,97216.00
2018-11-20T01:06:02.955Z,97190.00
2018-11-20T01:10:15.546Z,97203.00
2018-11-20T01:14:24.448Z,97204.00
2018-11-20T01:19:35.183Z,97192.00
2018-11-20T01:24:42.703Z,97183.00
2018-11-20T01:30:54.195Z,97183.00
2018-11-20T01:35:02.188Z,97188.00
2018-11-20T01:39:18.444Z,97180.00
2018-11-20T01:43:26.220Z,97182.00
2018-11-20T01:49:41.253Z,97160.00
2018-11-20T01:53:59.055Z,97165.00
2018-11-20T01:58:08.640Z,97177.00
2018-11-20T02:02:21.665Z,97162.00
2018-11-20T02:08:36.232Z,97164.00
2018-11-20T02:14:47.595Z,97148.00
2018-11-20T02:19:04.472Z,97151.00
2018-11-20T02:23:13.018Z,97143.00
2018-11-20T02:27:19.899Z,97137.00
2018-11-20T02:31:27.695Z,97141.00
2018-11-20T02:35:39.333Z,97131.00
2018-11-20T02:39:47.262Z,97137.00
2018-11-20T02:43:55.285Z,97129.00
2018-11-20T02:48:07.073Z,97125.00
2018-11-20T02:52:18.984Z,97101.00
2018-11-20T02:56:26.953Z,97091.00
2018-11-20T03:01:33.390Z,97090.00
2018-11-20T03:05:42.409Z,97099.00
2018-11-20T03:09:55.738Z,97099.00
2018-11-20T03:14:05.699Z,97102.00
2018-11-20T03:20:20.500Z,97099.00
2018-11-20T03:24:28.512Z,97092.00
2018-11-20T03:28:45.752Z,97099.00
2018-11-20T03:32:52.588Z,97091.00
2018-11-20T03:39:07.337Z,97083.00
2018-11-20T03:43:18.150Z,97088.00
2018-11-20T03:47:26.095Z,97084.00
2018-11-20T03:51:36.990Z,97077.00
2018-11-20T03:55:46.769Z,97088.00
2018-11-20T04:00:02.535Z,97085.00
2018-11-20T04:06:13.088Z,97097.00
2018-11-20T04:10:22.409Z,97069.00
2018-11-20T04:14:30.365Z,97062.00
2018-11-20T04:18:40.958Z,97062.00
2018-11-20T04:22:49.007Z,97057.00
2018-11-20T04:26:56.902Z,97063.00
2018-11-20T04:33:20.224Z,97050.00
2018-11-20T04:37:46.137Z,97054.00
2018-11-20T04:41:59.029Z,97056.00
2018-11-20T04:46:07.151Z,97041.00
2018-11-20T04:50:14.037Z,97041.00
2018-11-20T04:54:25.904Z,97034.00
2018-11-20T04:58:37.603Z,97040.00
2018-11-20T05:02:46.301Z,97042.00
2018-11-20T05:06:54.250Z,96956.00
2018-11-20T05:11:05.922Z,97036.00
2018-11-20T05:15:13.862Z,97034.00
2018-11-20T05:20:19.796Z,97039.00
2018-11-20T05:24:27.675Z,97031.00
2018-11-20T05:28:53.632Z,97044.00
2018-11-20T05:33:03.563Z,97037.00
2018-11-20T05:39:14.938Z,97021.00
2018-11-20T05:43:23.387Z,97031.00
2018-11-20T05:47:34.099Z,97022.00
2018-11-20T05:52:40.742Z,97027.00
2018-11-20T05:56:49.572Z,97020.00
2018-11-20T06:01:58.096Z,97017.00
2018-11-20T06:06:07.083Z,97026.00
2018-11-20T06:10:17.291Z,97020.00
2018-11-20T06:14:36.933Z,97022.00
2018-11-20T06:19:44.661Z,97019.00
2018-11-20T06:23:52.659Z,97023.00
2018-11-20T06:28:00.507Z,97036.00
2018-11-20T06:34:13.351Z,97031.00
2018-11-20T06:38:55.736Z,97037.00
2018-11-20T06:44:01.302Z,97030.00
2018-11-20T06:48:08.649Z,97038.00
2018-11-20T06:53:22.296Z,97045.00
2018-11-20T06:57:50.861Z,97045.00
2018-11-20T07:02:01.681Z,97051.00
2018-11-20T07:06:09.733Z,97048.00
2018-11-20T07:12:22.015Z,97046.00
2018-11-20T07:16:35.670Z,97042.00
2018-11-20T07:20:53.728Z,97065.00
2018-11-20T07:25:05.947Z,97048.00
2018-11-20T07:29:29.021Z,97042.00
2018-11-20T07:35:44.057Z,97049.00
2018-11-20T07:40:10.103Z,97045.00
2018-11-20T07:44:20.882Z,97039.00
2018-11-20T07:48:29.036Z,97038.00
2018-11-20T07:52:44.318Z,97041.00
2018-11-20T07:56:52.437Z,97031.00
2018-11-20T08:01:01.145Z,97043.00
2018-11-20T08:05:11.395Z,97041.00
2018-11-20T08:09:20.253Z,97035.00
2018-11-20T08:15:31.884Z,97041.00
2018-11-20T08:19:42.282Z,97042.00
2018-11-20T08:24:58.532Z,97021.00
2018-11-20T08:29:11.676Z,97034.00
2018-11-20T08:34:24.502Z,97033.00
2018-11-20T08:38:32.432Z,97033.00
2018-11-20T08:42:46.306Z,97015.00
2018-11-20T08:46:56.200Z,97015.00
2018-11-20T08:51:39.490Z,97024.00
2018-11-20T08:55:47.697Z,97027.00
2018-11-20T08:59:58.587Z,97019.00
2018-11-20T09:04:08.235Z,97017.00
2018-11-20T09:08:21.656Z,97014.00
2018-11-20T09:13:28.136Z,97014.00
2018-11-20T09:17:36.814Z,97004.00
2018-11-20T09:21:44.716Z,97009.00
2018-11-20T09:27:58.109Z,97013.00
2018-11-20T09:32:06.502Z,97014.00
2018-11-20T09:36:50.294Z,97005.00
2018-11-20T09:41:15.390Z,97001.00
2018-11-20T09:46:06.596Z,97002.00
2018-11-20T09:50:16.215Z,96978.00
2018-11-20T09:54:30.716Z,96974.00
2018-11-20T09:59:37.420Z,96987.00
2018-11-20T10:03:46.120Z,96980.00
2018-11-20T10:07:52.981Z,96972.00
2018-11-20T10:12:01.735Z,96966.00
2018-11-20T10:16:13.575Z,96952.00
2018-11-20T10:21:21.109Z,96960.00
2018-11-20T10:25:37.091Z,96949.00
2018-11-20T10:29:45.039Z,96955.00
2018-11-20T10:33:53.892Z,96947.00
2018-11-20T10:38:59.367Z,96958.00
2018-11-20T10:43:39.113Z,96952.00
2018-11-20T10:48:51.477Z,96946.00
2018-11-20T10:52:59.463Z,96951.00
2018-11-20T10:58:06.552Z,96943.00
2018-11-20T11:02:14.485Z,96954.00
2018-11-20T11:06:23.756Z,96948.00
2018-11-20T11:12:36.283Z,96948.00
2018-11-20T11:16:46.164Z,96930.00
2018-11-20T11:20:57.121Z,96941.00
2018-11-20T11:25:09.173Z,96932.00
2018-11-20T11:29:17.682Z,96940.00
2018-11-20T11:33:28.898Z,96954.00
2018-11-20T11:37:36.611Z,96949.00
2018-11-20T11:41:44.560Z,96941.00
2018-11-20T11:45:52.710Z,96936.00
2018-11-20T11:50:21.676Z,96946.00
2018-11-20T11:54:29.702Z,96939.00
2018-11-20T11:58:37.500Z,96945.00
